Terminal Aerodrome Forecast
Issued by NWS Boston, MA

Home | Current Version | Previous Version | Text Only | Print | Product List | Glossary On
Versions: 1 2 3 4 5 6 7 8 9 10 11 12 13 14 15 16 17 18 19 20 21 22 23 24 25 26 27 28 29 30 31 32 33 34 35 36 37 38 39 40 41 42 43 44 45
000
FTUS41 KBOX 052327
TAFBOS
TAF
KBOS 052327Z 0600/0706 34011KT P6SM SCT080 BKN100
     FM060500 33010KT P6SM SCT250
     FM061300 32006KT P6SM SKC
     FM061600 26004KT P6SM SKC
     FM061800 00000KT P6SM SKC
     FM062300 21006KT P6SM FEW250=

USA.gov is the U.S. government's official web portal to all federal, state and local government web resources and services.